createdAt,value
2022-10-28T00:00:30.924Z,0.00
2022-10-28T00:01:30.997Z,0.00
2022-10-28T00:02:30.949Z,0.00
2022-10-28T00:03:30.871Z,0.00
2022-10-28T00:05:30.848Z,0.00
2022-10-28T00:06:30.837Z,0.00
2022-10-28T00:07:30.835Z,0.00
2022-10-28T00:08:30.826Z,0.00
2022-10-28T00:09:30.819Z,0.00
2022-10-28T00:10:30.794Z,0.00
2022-10-28T00:11:31.681Z,0.00
2022-10-28T00:12:30.765Z,0.00
2022-10-28T00:13:30.764Z,0.00
2022-10-28T00:14:30.769Z,0.00
2022-10-28T00:15:30.754Z,0.00
2022-10-28T00:16:30.716Z,0.00
2022-10-28T00:17:30.721Z,0.00
2022-10-28T00:18:30.702Z,0.00
2022-10-28T00:19:30.710Z,0.00
2022-10-28T00:20:30.685Z,0.00
2022-10-28T00:21:30.682Z,0.00
2022-10-28T00:22:30.669Z,0.00
2022-10-28T00:23:30.650Z,0.00
2022-10-28T00:24:30.641Z,0.00
2022-10-28T00:25:30.660Z,0.00
2022-10-28T00:26:30.629Z,0.00
2022-10-28T00:27:30.594Z,0.00
2022-10-28T00:28:30.623Z,0.00
2022-10-28T00:29:30.595Z,0.00
2022-10-28T00:31:30.557Z,0.00
2022-10-28T00:32:30.548Z,0.00
2022-10-28T00:33:30.538Z,0.00
2022-10-28T00:34:31.217Z,0.00
2022-10-28T00:35:30.518Z,0.00
2022-10-28T00:36:30.515Z,0.00
2022-10-28T00:37:30.528Z,0.00
2022-10-28T00:38:30.486Z,0.00
2022-10-28T00:39:30.499Z,0.00
2022-10-28T00:40:30.477Z,0.00
2022-10-28T00:41:30.437Z,0.00
2022-10-28T00:42:30.441Z,0.00
2022-10-28T00:43:30.424Z,0.00
2022-10-28T00:44:30.435Z,0.00
2022-10-28T00:45:30.394Z,0.00
2022-10-28T00:46:30.523Z,0.00
2022-10-28T00:47:30.380Z,0.00
2022-10-28T00:48:30.371Z,0.00
2022-10-28T00:49:30.385Z,0.00
2022-10-28T00:50:30.378Z,0.00
2022-10-28T00:51:30.362Z,0.00
2022-10-28T00:52:30.359Z,0.00
2022-10-28T00:53:30.333Z,0.00
2022-10-28T00:54:30.305Z,0.00
2022-10-28T00:55:30.309Z,0.00
2022-10-28T00:56:30.279Z,0.00
2022-10-28T00:57:30.257Z,0.00
2022-10-28T00:58:30.254Z,0.00
2022-10-28T00:59:30.240Z,0.00
2022-10-28T01:00:30.300Z,0.00
2022-10-28T01:01:30.343Z,0.00
2022-10-28T01:02:30.251Z,0.00
2022-10-28T01:03:30.207Z,0.00
2022-10-28T01:04:30.213Z,0.00
2022-10-28T01:05:30.176Z,0.00
2022-10-28T01:06:30.198Z,0.00
2022-10-28T01:07:30.170Z,0.00
2022-10-28T01:08:30.151Z,0.00
2022-10-28T01:09:30.126Z,0.00
2022-10-28T01:10:30.127Z,0.00
2022-10-28T01:11:30.105Z,0.00
2022-10-28T01:12:30.169Z,0.00
2022-10-28T01:13:30.095Z,0.00
2022-10-28T01:14:30.093Z,0.00
2022-10-28T01:15:30.062Z,0.00
2022-10-28T01:16:30.050Z,0.00
2022-10-28T01:17:30.035Z,0.00
2022-10-28T01:18:30.064Z,0.00
2022-10-28T01:19:30.028Z,0.00
2022-10-28T01:20:30.021Z,0.00
2022-10-28T01:21:30.003Z,0.00
2022-10-28T01:23:30.020Z,0.00
2022-10-28T01:24:29.967Z,0.00
2022-10-28T01:25:29.941Z,0.00
2022-10-28T01:26:29.975Z,0.00
2022-10-28T01:27:29.933Z,0.00
2022-10-28T01:28:29.982Z,0.00
2022-10-28T01:29:29.922Z,0.00
2022-10-28T01:30:29.940Z,0.00
2022-10-28T01:31:29.889Z,0.00
2022-10-28T01:32:29.860Z,0.00
2022-10-28T01:33:29.867Z,0.00
2022-10-28T01:34:29.864Z,0.00
2022-10-28T01:36:29.839Z,0.00
2022-10-28T01:37:29.820Z,0.00
2022-10-28T01:38:29.803Z,0.00
2022-10-28T01:39:29.791Z,0.00
2022-10-28T01:40:29.777Z,0.00
2022-10-28T01:41:29.827Z,0.00
2022-10-28T01:42:29.762Z,0.00
2022-10-28T01:43:29.758Z,0.00
2022-10-28T01:44:29.740Z,0.00
2022-10-28T01:45:29.719Z,0.00
2022-10-28T01:46:30.389Z,0.00
2022-10-28T01:47:29.748Z,0.00
2022-10-28T01:48:29.727Z,0.00
2022-10-28T01:49:29.689Z,0.00
2022-10-28T01:50:29.713Z,0.00
2022-10-28T01:51:29.680Z,0.00
2022-10-28T01:52:29.682Z,0.00
2022-10-28T01:53:29.654Z,0.00
2022-10-28T01:54:29.622Z,0.00
2022-10-28T01:55:29.623Z,0.00
2022-10-28T01:56:29.645Z,0.00
2022-10-28T01:57:29.592Z,0.00
2022-10-28T01:58:29.612Z,0.00
2022-10-28T01:59:29.578Z,0.00
2022-10-28T02:00:29.657Z,0.00
2022-10-28T02:01:29.785Z,0.00
2022-10-28T02:02:29.592Z,0.00
2022-10-28T02:03:29.523Z,0.00
2022-10-28T02:04:29.519Z,0.00
2022-10-28T02:05:29.507Z,0.00
2022-10-28T02:06:29.501Z,0.00
2022-10-28T02:07:29.543Z,0.00
2022-10-28T02:08:29.466Z,0.00
2022-10-28T02:09:29.458Z,0.00
2022-10-28T02:10:29.446Z,0.00
2022-10-28T02:11:29.445Z,0.00
2022-10-28T02:12:29.430Z,0.00
2022-10-28T02:13:29.444Z,0.00
2022-10-28T02:14:29.409Z,0.00
2022-10-28T02:15:29.401Z,0.00
2022-10-28T02:16:29.394Z,0.00
2022-10-28T02:17:29.355Z,0.00
2022-10-28T02:18:29.364Z,0.00
2022-10-28T02:19:29.365Z,0.00
2022-10-28T02:20:29.332Z,0.00
2022-10-28T02:21:29.325Z,0.00
2022-10-28T02:22:29.321Z,0.00
2022-10-28T02:23:29.329Z,0.00
2022-10-28T02:24:29.278Z,0.00
2022-10-28T02:25:29.280Z,0.00
2022-10-28T02:26:29.269Z,0.00
2022-10-28T02:27:29.274Z,0.00
2022-10-28T02:28:29.253Z,0.00
2022-10-28T02:29:29.235Z,0.00
2022-10-28T02:30:29.213Z,0.00
2022-10-28T02:31:29.206Z,0.00
2022-10-28T02:32:29.214Z,0.00
2022-10-28T02:33:29.219Z,0.00
2022-10-28T02:34:29.186Z,0.00
2022-10-28T02:35:29.177Z,0.00
2022-10-28T02:36:29.176Z,0.00
2022-10-28T02:37:29.146Z,0.00
2022-10-28T02:38:29.158Z,0.00
2022-10-28T02:39:29.165Z,0.00
2022-10-28T02:40:29.119Z,0.00
2022-10-28T02:41:29.091Z,0.00
2022-10-28T02:42:29.094Z,0.00
2022-10-28T02:43:29.076Z,0.00
2022-10-28T02:44:29.080Z,0.00
2022-10-28T02:45:29.049Z,0.00
2022-10-28T02:46:29.052Z,0.00
2022-10-28T02:47:29.032Z,0.00
2022-10-28T02:48:29.034Z,0.00
2022-10-28T02:49:28.991Z,0.00
2022-10-28T02:50:29.010Z,0.00
2022-10-28T02:51:29.012Z,0.00
2022-10-28T02:52:28.978Z,0.00
2022-10-28T02:53:28.988Z,0.00
2022-10-28T02:54:28.951Z,0.00
2022-10-28T02:55:28.929Z,0.00
2022-10-28T02:56:28.962Z,0.00
2022-10-28T02:57:28.924Z,0.00
2022-10-28T02:58:28.894Z,0.00
2022-10-28T02:59:28.892Z,0.00
2022-10-28T03:00:28.892Z,0.00
2022-10-28T03:01:29.065Z,0.00
2022-10-28T03:02:28.899Z,0.00
2022-10-28T03:03:28.898Z,0.00
2022-10-28T03:04:28.825Z,0.00
2022-10-28T03:05:28.845Z,0.00
2022-10-28T03:06:28.841Z,0.00
2022-10-28T03:07:28.810Z,0.00
2022-10-28T03:08:28.846Z,0.00
2022-10-28T03:09:28.786Z,0.00
2022-10-28T03:10:28.777Z,0.00
2022-10-28T03:11:28.764Z,0.00
2022-10-28T03:12:28.773Z,0.00
2022-10-28T03:13:28.767Z,0.00
2022-10-28T03:14:28.752Z,0.00
2022-10-28T03:15:28.715Z,0.00
2022-10-28T03:16:28.727Z,0.00
2022-10-28T03:17:28.703Z,0.00
2022-10-28T03:18:28.735Z,0.00
2022-10-28T03:19:28.671Z,0.00
2022-10-28T03:20:28.677Z,0.00
2022-10-28T03:21:28.643Z,0.00
2022-10-28T03:22:28.644Z,0.00
2022-10-28T03:23:28.648Z,0.00
2022-10-28T03:24:28.657Z,0.00
2022-10-28T03:25:28.605Z,0.00
2022-10-28T03:26:28.591Z,0.00
2022-10-28T03:27:28.592Z,0.00
2022-10-28T03:28:28.569Z,0.00
2022-10-28T03:29:28.628Z,0.00
2022-10-28T03:30:28.553Z,0.00
2022-10-28T03:31:28.586Z,0.00
2022-10-28T03:32:28.528Z,0.00
2022-10-28T03:33:28.532Z,0.00
2022-10-28T03:34:28.513Z,0.00
2022-10-28T03:35:28.481Z,0.00
2022-10-28T03:36:28.495Z,0.00
2022-10-28T03:37:28.470Z,0.00
2022-10-28T03:38:28.490Z,0.00
2022-10-28T03:39:28.430Z,0.00
2022-10-28T03:40:28.418Z,0.00
2022-10-28T03:41:28.416Z,0.00
2022-10-28T03:42:28.435Z,0.00
2022-10-28T03:43:28.416Z,0.00
2022-10-28T03:44:28.401Z,0.00
2022-10-28T03:46:30.111Z,0.00
2022-10-28T03:47:28.346Z,0.00
2022-10-28T03:48:28.348Z,0.00
2022-10-28T03:49:28.327Z,0.00
2022-10-28T03:50:28.331Z,0.00
2022-10-28T03:51:28.357Z,0.00
2022-10-28T03:52:28.303Z,0.00
2022-10-28T03:53:31.155Z,0.00
2022-10-28T03:54:28.287Z,0.00
2022-10-28T03:55:28.266Z,0.00
2022-10-28T03:56:28.275Z,0.00
2022-10-28T03:57:28.285Z,0.00
2022-10-28T03:58:28.244Z,0.00
2022-10-28T03:59:28.223Z,0.00
2022-10-28T04:00:28.208Z,0.00
2022-10-28T04:01:28.304Z,0.00
2022-10-28T04:02:28.338Z,0.00
2022-10-28T04:03:28.206Z,0.00
2022-10-28T04:04:29.993Z,0.00
2022-10-28T04:05:28.169Z,0.00
2022-10-28T04:06:28.157Z,0.00
2022-10-28T04:07:28.128Z,0.00
2022-10-28T04:08:28.109Z,0.00
2022-10-28T04:09:28.132Z,0.00
2022-10-28T04:10:28.089Z,0.00
2022-10-28T04:11:28.089Z,0.00
2022-10-28T04:12:28.087Z,0.00
2022-10-28T04:13:28.057Z,0.00
2022-10-28T04:14:28.342Z,0.00
2022-10-28T04:15:29.191Z,0.00
2022-10-28T04:16:28.055Z,0.00
2022-10-28T04:17:28.020Z,0.00
2022-10-28T04:18:28.008Z,0.00
2022-10-28T04:19:27.998Z,0.00
2022-10-28T04:20:28.016Z,0.00
2022-10-28T04:21:27.974Z,0.00
2022-10-28T04:22:27.990Z,0.00
2022-10-28T04:23:27.973Z,0.00
2022-10-28T04:24:27.937Z,0.00
2022-10-28T04:25:27.950Z,0.00
2022-10-28T04:26:27.911Z,0.00
2022-10-28T04:27:27.913Z,0.00
2022-10-28T04:28:27.927Z,0.00
2022-10-28T04:29:27.879Z,0.00
2022-10-28T04:30:27.872Z,0.00
2022-10-28T04:31:27.861Z,0.00
2022-10-28T04:32:27.876Z,0.00
2022-10-28T04:33:27.877Z,0.00
2022-10-28T04:34:27.833Z,0.00
2022-10-28T04:35:27.812Z,0.00
2022-10-28T04:36:27.809Z,0.00
2022-10-28T04:37:27.800Z,0.00
2022-10-28T04:38:27.830Z,0.00
2022-10-28T04:39:27.786Z,0.00
2022-10-28T04:40:27.752Z,0.00
2022-10-28T04:41:27.736Z,0.00
2022-10-28T04:42:27.738Z,0.00
2022-10-28T04:43:27.735Z,0.00
2022-10-28T04:44:27.780Z,0.00
2022-10-28T04:45:27.694Z,0.00
2022-10-28T04:46:27.703Z,0.00
2022-10-28T04:47:27.793Z,0.00
2022-10-28T04:48:27.660Z,0.00
2022-10-28T04:49:27.658Z,0.00
2022-10-28T04:50:27.648Z,0.00
2022-10-28T04:51:27.628Z,0.00
2022-10-28T04:52:27.629Z,0.00
2022-10-28T04:53:27.609Z,0.00
2022-10-28T04:54:27.606Z,0.00
2022-10-28T04:55:27.622Z,0.00
2022-10-28T04:56:27.586Z,0.00
2022-10-28T04:57:27.568Z,0.00
2022-10-28T04:58:27.576Z,0.00
2022-10-28T04:59:27.595Z,0.00
2022-10-28T05:00:27.566Z,0.00
2022-10-28T05:01:27.663Z,0.00
2022-10-28T05:02:27.598Z,0.00
2022-10-28T05:03:27.491Z,0.00
2022-10-28T05:04:27.475Z,0.00
2022-10-28T05:05:27.519Z,0.00
2022-10-28T05:06:27.459Z,0.00
2022-10-28T05:07:27.499Z,0.00
2022-10-28T05:08:27.443Z,0.00
2022-10-28T05:09:28.082Z,0.00
2022-10-28T05:10:27.427Z,0.00
2022-10-28T05:11:27.409Z,0.00
2022-10-28T05:12:27.420Z,0.00
2022-10-28T05:13:27.393Z,0.00
2022-10-28T05:14:27.372Z,0.00
2022-10-28T05:15:27.377Z,0.00
2022-10-28T05:16:27.576Z,0.00
2022-10-28T05:17:27.364Z,0.00
2022-10-28T05:18:27.415Z,0.00
2022-10-28T05:19:27.372Z,0.00
2022-10-28T05:20:27.316Z,0.00
2022-10-28T05:21:27.309Z,0.00
2022-10-28T05:22:27.296Z,0.00
2022-10-28T05:23:30.547Z,0.00
2022-10-28T05:24:27.284Z,0.00
2022-10-28T05:25:28.050Z,0.00
2022-10-28T05:26:27.258Z,0.00
2022-10-28T05:27:27.234Z,0.00
2022-10-28T05:28:27.285Z,0.00
2022-10-28T05:29:32.302Z,0.00
2022-10-28T05:30:27.265Z,0.00
2022-10-28T05:31:27.186Z,0.00
2022-10-28T05:32:27.161Z,0.00
2022-10-28T05:33:27.174Z,0.00
2022-10-28T05:34:27.206Z,0.00
2022-10-28T05:35:27.168Z,0.00
2022-10-28T05:36:27.140Z,0.00
2022-10-28T05:37:27.146Z,0.00
2022-10-28T05:38:27.104Z,0.00
2022-10-28T05:39:27.103Z,0.00
2022-10-28T05:40:27.126Z,0.00
2022-10-28T05:41:27.080Z,0.00
2022-10-28T05:42:27.069Z,0.00
2022-10-28T05:43:27.051Z,0.00
2022-10-28T05:44:27.043Z,4.00
2022-10-28T05:45:27.092Z,4.00
2022-10-28T05:46:27.072Z,4.00
2022-10-28T05:47:27.038Z,4.00
2022-10-28T05:48:27.029Z,0.00
2022-10-28T05:49:26.986Z,4.00
2022-10-28T05:50:26.985Z,4.00
2022-10-28T05:51:26.951Z,4.00
2022-10-28T05:52:26.959Z,8.00
2022-10-28T05:53:26.950Z,4.00
2022-10-28T05:54:26.961Z,8.00
2022-10-28T05:55:26.926Z,4.00
2022-10-28T05:56:26.889Z,8.00
2022-10-28T05:57:26.890Z,8.00
2022-10-28T05:58:26.883Z,8.00
2022-10-28T05:59:26.918Z,12.00
2022-10-28T06:00:26.850Z,12.00
2022-10-28T06:01:26.869Z,16.00
2022-10-28T06:02:26.864Z,16.00
2022-10-28T06:03:30.225Z,20.00
2022-10-28T06:04:26.794Z,20.00
2022-10-28T06:05:26.885Z,20.00
2022-10-28T06:06:26.783Z,24.00
2022-10-28T06:07:26.795Z,24.00
2022-10-28T06:08:26.775Z,32.00
2022-10-28T06:09:26.761Z,32.00
2022-10-28T06:10:26.745Z,36.00
2022-10-28T06:11:25.227Z,40.00
2022-10-28T06:12:25.263Z,44.00
2022-10-28T06:13:25.185Z,48.00
2022-10-28T06:14:25.194Z,52.00
2022-10-28T06:15:25.176Z,56.00
2022-10-28T06:16:25.170Z,60.00
2022-10-28T06:17:30.121Z,68.00
2022-10-28T06:18:26.920Z,72.00
2022-10-28T06:19:25.119Z,76.00
2022-10-28T06:20:25.197Z,84.00
2022-10-28T06:21:25.119Z,88.00
2022-10-28T06:22:25.084Z,92.00
2022-10-28T06:23:25.079Z,100.00
2022-10-28T06:24:25.077Z,108.00
2022-10-28T06:25:25.047Z,112.00
2022-10-28T06:26:25.069Z,120.00
2022-10-28T06:27:25.026Z,128.00
2022-10-28T06:28:25.023Z,132.00
2022-10-28T06:29:25.062Z,140.00
2022-10-28T06:30:25.139Z,152.00
2022-10-28T06:31:24.989Z,156.00
2022-10-28T06:32:24.976Z,164.00
2022-10-28T06:33:24.976Z,176.00
2022-10-28T06:34:24.957Z,184.00
2022-10-28T06:35:24.956Z,196.00
2022-10-28T06:36:24.955Z,200.00
2022-10-28T06:37:24.934Z,212.00
2022-10-28T06:38:24.938Z,216.00
2022-10-28T06:40:25.088Z,236.00
2022-10-28T06:41:25.616Z,248.00
2022-10-28T06:42:27.042Z,256.00
2022-10-28T06:43:24.884Z,264.00
2022-10-28T06:44:24.850Z,276.00
2022-10-28T06:45:24.851Z,288.00
2022-10-28T06:46:24.853Z,304.00
2022-10-28T06:47:26.359Z,316.00
2022-10-28T06:48:26.368Z,332.00
2022-10-28T06:49:26.304Z,348.00
2022-10-28T06:50:26.480Z,372.00
2022-10-28T06:51:26.300Z,388.00
2022-10-28T06:52:26.345Z,412.00
2022-10-28T06:53:26.269Z,436.00
2022-10-28T06:54:26.298Z,464.00
2022-10-28T06:55:26.257Z,488.00
2022-10-28T06:56:26.233Z,508.00
2022-10-28T06:57:29.153Z,524.00
2022-10-28T06:58:26.261Z,532.00
2022-10-28T06:59:26.966Z,524.00
2022-10-28T07:00:26.353Z,500.00
2022-10-28T07:01:26.390Z,480.00
2022-10-28T07:02:26.379Z,472.00
2022-10-28T07:03:26.196Z,472.00
2022-10-28T07:04:26.149Z,472.00
2022-10-28T07:05:26.157Z,480.00
2022-10-28T07:06:26.159Z,484.00
2022-10-28T07:07:26.143Z,484.00
2022-10-28T07:08:26.137Z,484.00
2022-10-28T07:09:26.097Z,492.00
2022-10-28T07:10:26.724Z,496.00
2022-10-28T07:11:26.102Z,504.00
2022-10-28T07:12:26.078Z,516.00
2022-10-28T07:13:26.086Z,532.00
2022-10-28T07:14:26.128Z,544.00
2022-10-28T07:15:26.092Z,560.00
2022-10-28T07:16:26.854Z,580.00
2022-10-28T07:17:26.025Z,608.00
2022-10-28T07:18:26.065Z,644.00
2022-10-28T07:19:26.040Z,684.00
2022-10-28T07:20:26.009Z,732.00
2022-10-28T07:21:26.111Z,772.00
2022-10-28T07:22:26.000Z,808.00
2022-10-28T07:23:25.994Z,832.00
2022-10-28T07:25:25.951Z,828.00
2022-10-28T07:26:26.052Z,812.00
2022-10-28T07:27:25.975Z,808.00
2022-10-28T07:28:26.190Z,788.00
2022-10-28T07:29:25.887Z,788.00
2022-10-28T07:30:25.882Z,788.00
2022-10-28T07:31:25.869Z,800.00
2022-10-28T07:32:25.870Z,792.00
2022-10-28T07:33:25.891Z,796.00
2022-10-28T07:34:27.308Z,800.00
2022-10-28T07:35:25.843Z,812.00
2022-10-28T07:36:25.877Z,892.00
2022-10-28T07:37:25.830Z,892.00
2022-10-28T07:38:26.164Z,912.00
2022-10-28T07:39:25.856Z,936.00
2022-10-28T07:40:25.838Z,876.00
2022-10-28T07:41:25.799Z,884.00
2022-10-28T07:42:25.763Z,904.00
2022-10-28T07:43:25.799Z,920.00
2022-10-28T07:44:25.758Z,948.00
2022-10-28T07:45:25.758Z,968.00
2022-10-28T07:46:25.787Z,992.00
2022-10-28T07:47:25.718Z,1016.00
2022-10-28T07:48:25.722Z,1040.00
2022-10-28T07:49:25.692Z,1068.00
2022-10-28T07:50:25.673Z,1084.00
2022-10-28T07:51:25.683Z,1112.00
2022-10-28T07:52:25.660Z,1124.00
2022-10-28T07:53:28.610Z,1124.00
2022-10-28T07:54:25.624Z,1120.00
2022-10-28T07:55:25.620Z,1120.00
2022-10-28T07:56:25.606Z,1128.00
2022-10-28T07:57:25.588Z,1140.00
2022-10-28T07:58:25.604Z,1156.00
2022-10-28T07:59:26.809Z,1168.00
2022-10-28T08:00:25.586Z,1204.00
2022-10-28T08:01:25.730Z,1252.00
2022-10-28T08:02:25.531Z,1304.00
2022-10-28T08:03:34.532Z,1348.00
2022-10-28T08:04:25.496Z,1364.00
2022-10-28T08:05:25.488Z,1372.00
2022-10-28T08:06:25.542Z,1364.00
2022-10-28T08:07:25.471Z,1360.00
2022-10-28T08:08:25.459Z,1356.00
2022-10-28T08:09:25.437Z,1352.00
2022-10-28T08:10:25.410Z,1348.00
2022-10-28T08:11:25.418Z,1332.00
2022-10-28T08:12:25.382Z,1316.00
2022-10-28T08:13:25.374Z,1292.00
2022-10-28T08:14:25.380Z,1264.00
2022-10-28T08:15:25.348Z,1248.00
2022-10-28T08:16:25.326Z,1240.00
2022-10-28T08:17:25.339Z,1216.00
2022-10-28T08:18:25.313Z,1200.00
2022-10-28T08:19:25.325Z,1192.00
2022-10-28T08:20:25.290Z,1196.00
2022-10-28T08:21:25.284Z,1212.00
2022-10-28T08:22:25.273Z,1220.00
2022-10-28T08:23:25.246Z,1228.00
2022-10-28T08:24:25.263Z,1260.00
2022-10-28T08:25:25.234Z,1272.00
2022-10-28T08:26:25.216Z,1288.00
2022-10-28T08:27:25.193Z,1292.00
2022-10-28T08:28:25.182Z,1276.00
2022-10-28T08:29:29.838Z,1260.00
2022-10-28T08:30:25.190Z,1256.00
2022-10-28T08:31:25.184Z,1268.00
2022-10-28T08:32:25.215Z,1268.00
2022-10-28T08:33:25.149Z,1248.00
2022-10-28T08:34:25.166Z,1244.00
2022-10-28T08:35:25.118Z,1240.00
2022-10-28T08:36:25.111Z,1244.00
2022-10-28T08:37:25.219Z,1252.00
2022-10-28T08:38:25.099Z,1292.00
2022-10-28T08:39:25.112Z,1316.00
2022-10-28T08:40:25.065Z,1356.00
2022-10-28T08:41:25.093Z,1432.00
2022-10-28T08:42:25.045Z,1492.00
2022-10-28T08:43:40.035Z,1516.00
2022-10-28T08:44:25.020Z,1512.00
2022-10-28T08:45:25.037Z,1520.00
2022-10-28T08:46:25.002Z,1520.00
2022-10-28T08:47:25.168Z,1500.00
2022-10-28T08:48:24.997Z,1480.00
2022-10-28T08:49:24.959Z,1456.00
2022-10-28T08:50:25.185Z,1416.00
2022-10-28T08:51:25.504Z,1392.00
2022-10-28T08:52:24.925Z,1404.00
2022-10-28T08:53:25.013Z,1420.00
2022-10-28T08:54:24.929Z,1452.00
2022-10-28T08:55:25.707Z,1472.00
2022-10-28T08:56:24.880Z,1492.00
2022-10-28T08:57:24.877Z,1520.00
2022-10-28T08:58:24.858Z,1552.00
2022-10-28T08:59:24.900Z,1608.00
2022-10-28T09:00:25.108Z,1616.00
2022-10-28T09:01:26.875Z,1632.00
2022-10-28T09:02:24.805Z,1640.00
2022-10-28T09:03:24.816Z,1628.00
2022-10-28T09:04:24.793Z,1608.00
2022-10-28T09:05:24.802Z,1568.00
2022-10-28T09:06:24.794Z,1512.00
2022-10-28T09:07:24.769Z,1456.00
2022-10-28T09:08:24.765Z,1420.00
2022-10-28T09:09:24.744Z,1388.00
2022-10-28T09:10:24.760Z,1364.00
2022-10-28T09:11:26.382Z,1356.00
2022-10-28T09:12:24.744Z,1368.00
2022-10-28T09:13:24.715Z,1396.00
2022-10-28T09:14:24.707Z,1428.00
2022-10-28T09:15:24.696Z,1456.00
2022-10-28T09:16:25.646Z,1468.00
2022-10-28T09:17:24.757Z,1480.00
2022-10-28T09:18:24.673Z,1492.00
2022-10-28T09:19:24.684Z,1520.00
2022-10-28T09:20:24.622Z,1532.00
2022-10-28T09:21:24.700Z,1528.00
2022-10-28T09:22:24.869Z,1516.00
2022-10-28T09:23:24.572Z,1544.00
2022-10-28T09:24:24.630Z,1584.00
2022-10-28T09:25:24.601Z,1616.00
2022-10-28T09:26:24.555Z,1636.00
2022-10-28T09:27:24.564Z,1636.00
2022-10-28T09:28:24.554Z,1628.00
2022-10-28T09:29:24.637Z,1592.00
2022-10-28T09:30:24.582Z,1520.00
2022-10-28T09:31:24.500Z,1440.00
2022-10-28T09:32:24.561Z,1392.00
2022-10-28T09:33:24.483Z,1344.00
2022-10-28T09:34:24.493Z,1316.00
2022-10-28T09:35:25.177Z,1308.00
2022-10-28T09:36:27.358Z,1288.00
2022-10-28T09:37:24.936Z,1260.00
2022-10-28T09:38:24.486Z,1244.00
2022-10-28T09:39:28.158Z,1200.00
2022-10-28T09:40:24.416Z,1208.00
2022-10-28T09:41:24.372Z,1256.00
2022-10-28T09:42:24.389Z,1320.00
2022-10-28T09:43:24.442Z,1408.00
2022-10-28T09:44:25.595Z,1428.00
2022-10-28T09:45:24.329Z,1492.00
2022-10-28T09:46:24.331Z,1592.00
2022-10-28T09:47:24.325Z,1656.00
2022-10-28T09:48:24.325Z,1684.00
2022-10-28T09:49:24.404Z,1660.00
2022-10-28T09:50:24.408Z,1560.00
2022-10-28T09:51:24.304Z,1456.00
2022-10-28T09:52:24.286Z,1364.00
2022-10-28T09:53:24.238Z,1276.00
2022-10-28T09:54:24.341Z,1192.00
2022-10-28T09:55:24.260Z,1152.00
2022-10-28T09:56:24.205Z,1148.00
2022-10-28T09:57:24.197Z,1172.00
2022-10-28T09:58:24.496Z,1160.00
2022-10-28T09:59:24.298Z,1116.00
2022-10-28T10:00:24.220Z,1148.00
2022-10-28T10:01:24.752Z,1160.00
2022-10-28T10:02:25.214Z,1184.00
2022-10-28T10:03:24.142Z,1152.00
2022-10-28T10:04:24.120Z,1056.00
2022-10-28T10:05:24.126Z,956.00
2022-10-28T10:06:24.107Z,908.00
2022-10-28T10:07:24.091Z,892.00
2022-10-28T10:08:24.064Z,916.00
2022-10-28T10:09:24.119Z,876.00
2022-10-28T10:10:24.077Z,864.00
2022-10-28T10:11:24.075Z,884.00
2022-10-28T10:12:24.064Z,952.00
2022-10-28T10:13:24.039Z,1012.00
2022-10-28T10:14:24.050Z,1096.00
2022-10-28T10:15:25.262Z,1172.00
2022-10-28T10:16:24.004Z,1184.00
2022-10-28T10:17:25.698Z,1168.00
2022-10-28T10:18:23.951Z,1136.00
2022-10-28T10:19:23.989Z,1068.00
2022-10-28T10:20:24.097Z,1036.00
2022-10-28T10:21:23.939Z,1064.00
2022-10-28T10:22:23.914Z,1104.00
2022-10-28T10:23:24.009Z,1124.00
2022-10-28T10:24:23.913Z,1156.00
2022-10-28T10:25:23.898Z,1160.00
2022-10-28T10:26:23.880Z,1172.00
2022-10-28T10:27:23.869Z,1184.00
2022-10-28T10:28:23.844Z,1172.00
2022-10-28T10:29:23.866Z,1188.00
2022-10-28T10:30:23.891Z,1168.00
2022-10-28T10:31:23.843Z,1152.00
2022-10-28T10:32:24.895Z,1152.00
2022-10-28T10:33:23.803Z,1112.00
2022-10-28T10:34:23.830Z,1012.00
2022-10-28T10:35:23.851Z,1000.00
2022-10-28T10:36:23.919Z,1052.00
2022-10-28T10:37:23.773Z,1124.00
2022-10-28T10:38:23.765Z,1192.00
2022-10-28T10:39:23.745Z,1216.00
2022-10-28T10:40:26.210Z,1212.00
2022-10-28T10:41:23.727Z,1144.00
2022-10-28T10:42:23.744Z,1056.00
2022-10-28T10:43:23.705Z,1020.00
2022-10-28T10:44:23.665Z,1024.00
2022-10-28T10:45:23.674Z,1068.00
2022-10-28T10:46:23.658Z,1136.00
2022-10-28T10:47:23.679Z,1176.00
2022-10-28T10:48:24.214Z,1212.00
2022-10-28T10:49:23.631Z,1264.00
2022-10-28T10:50:24.260Z,1300.00
2022-10-28T10:51:23.600Z,1304.00
2022-10-28T10:52:24.390Z,1320.00
2022-10-28T10:53:23.570Z,1376.00
2022-10-28T10:54:23.655Z,1412.00
2022-10-28T10:55:23.563Z,1404.00
2022-10-28T10:56:23.526Z,1368.00
2022-10-28T10:57:23.552Z,1320.00
2022-10-28T10:58:23.537Z,1284.00
2022-10-28T10:59:23.499Z,1300.00
2022-10-28T11:00:23.485Z,1336.00
2022-10-28T11:01:23.583Z,1376.00
2022-10-28T11:02:23.561Z,1436.00
2022-10-28T11:03:23.459Z,1520.00
2022-10-28T11:04:23.460Z,1580.00
2022-10-28T11:05:27.103Z,1596.00
2022-10-28T11:06:24.603Z,1624.00
2022-10-28T11:07:23.460Z,1664.00
2022-10-28T11:08:23.430Z,1720.00
2022-10-28T11:09:23.407Z,1772.00
2022-10-28T11:10:23.416Z,1780.00
2022-10-28T11:11:25.262Z,1784.00
2022-10-28T11:12:23.370Z,1776.00
2022-10-28T11:13:23.395Z,1736.00
2022-10-28T11:14:23.333Z,1680.00
2022-10-28T11:15:23.324Z,1648.00
2022-10-28T11:16:23.330Z,1648.00
2022-10-28T11:17:23.357Z,1636.00
2022-10-28T11:18:23.328Z,1612.00
2022-10-28T11:19:23.300Z,1588.00
2022-10-28T11:20:23.285Z,1548.00
2022-10-28T11:22:23.249Z,1456.00
2022-10-28T11:23:23.225Z,1420.00
2022-10-28T11:24:23.234Z,1388.00
2022-10-28T11:25:23.223Z,1332.00
2022-10-28T11:26:23.222Z,1292.00
2022-10-28T11:27:23.182Z,1224.00
2022-10-28T11:28:23.739Z,1196.00
2022-10-28T11:29:23.203Z,1224.00
2022-10-28T11:30:23.157Z,1236.00
2022-10-28T11:31:23.780Z,1256.00
2022-10-28T11:32:23.133Z,1332.00
2022-10-28T11:33:30.137Z,1336.00
2022-10-28T11:34:23.148Z,1308.00
2022-10-28T11:35:23.095Z,1280.00
2022-10-28T11:36:23.197Z,1228.00
2022-10-28T11:37:23.082Z,1176.00
2022-10-28T11:38:23.065Z,1116.00
2022-10-28T11:39:23.065Z,1080.00
2022-10-28T11:40:23.073Z,1060.00
2022-10-28T11:41:23.065Z,1052.00
2022-10-28T11:42:23.041Z,1048.00
2022-10-28T11:43:23.038Z,1048.00
2022-10-28T11:44:23.052Z,1056.00
2022-10-28T11:45:23.059Z,1072.00
2022-10-28T11:46:23.018Z,1088.00
2022-10-28T11:47:22.966Z,1112.00
2022-10-28T11:48:22.962Z,1124.00
2022-10-28T11:49:22.964Z,1100.00
2022-10-28T11:50:22.937Z,1088.00
2022-10-28T11:51:22.964Z,1084.00
2022-10-28T11:52:22.932Z,1076.00
2022-10-28T11:53:22.894Z,1040.00
2022-10-28T11:54:22.892Z,1000.00
2022-10-28T11:55:22.875Z,976.00
2022-10-28T11:56:22.894Z,944.00
2022-10-28T11:57:22.866Z,912.00
2022-10-28T11:58:22.842Z,888.00
2022-10-28T11:59:22.856Z,868.00
2022-10-28T12:00:22.849Z,848.00
2022-10-28T12:01:22.891Z,836.00
2022-10-28T12:02:23.009Z,832.00
2022-10-28T12:03:22.970Z,840.00
2022-10-28T12:04:22.813Z,848.00
2022-10-28T12:05:22.797Z,840.00
2022-10-28T12:06:22.798Z,820.00
2022-10-28T12:07:22.835Z,816.00
2022-10-28T12:08:23.081Z,824.00
2022-10-28T12:09:22.744Z,824.00
2022-10-28T12:10:22.717Z,828.00
2022-10-28T12:11:22.760Z,828.00
2022-10-28T12:12:22.758Z,832.00
2022-10-28T12:13:22.674Z,840.00
2022-10-28T12:14:22.679Z,828.00
2022-10-28T12:15:22.679Z,788.00
2022-10-28T12:16:22.665Z,752.00
2022-10-28T12:17:22.616Z,720.00
2022-10-28T12:18:22.654Z,688.00
2022-10-28T12:19:22.722Z,672.00
2022-10-28T12:20:22.586Z,668.00
2022-10-28T12:21:23.408Z,676.00
2022-10-28T12:22:22.587Z,672.00
2022-10-28T12:23:22.603Z,668.00
2022-10-28T12:24:22.555Z,660.00
2022-10-28T12:25:22.717Z,644.00
2022-10-28T12:26:22.568Z,652.00
2022-10-28T12:27:22.529Z,664.00
2022-10-28T12:28:22.663Z,668.00
2022-10-28T12:29:22.482Z,668.00
2022-10-28T12:30:22.517Z,668.00
2022-10-28T12:31:22.507Z,664.00
2022-10-28T12:32:22.518Z,640.00
2022-10-28T12:33:22.465Z,620.00
2022-10-28T12:34:22.594Z,596.00
2022-10-28T12:35:22.537Z,596.00
2022-10-28T12:36:22.455Z,588.00
2022-10-28T12:37:22.433Z,572.00
2022-10-28T12:38:22.389Z,564.00
2022-10-28T12:39:22.381Z,560.00
2022-10-28T12:40:22.444Z,572.00
2022-10-28T12:41:22.734Z,564.00
2022-10-28T12:42:22.354Z,560.00
2022-10-28T12:43:22.966Z,556.00
2022-10-28T12:44:23.291Z,556.00
2022-10-28T12:45:22.324Z,584.00
2022-10-28T12:46:23.286Z,600.00
2022-10-28T12:47:22.317Z,612.00
2022-10-28T12:48:22.609Z,624.00
2022-10-28T12:49:22.269Z,636.00
2022-10-28T12:50:22.254Z,644.00
2022-10-28T12:51:22.801Z,652.00